Aeroporto :
LOGIN :

Iscrizione | Disclaimer

   EN    FR    IT 

 










Sommario :    VFR   VFR Marginale   IFR   IFR Intensivo   IFR Molto Intensivo
Visibilità : 
Base nubi : 
>= 8 km
>= 3000ft
5 / 8 km
1000 / 3000 ft
1500m / 5 km
500 / 1000 ft
800 / 1500m
200 / 500 ft
< 800m
< 200 ft
Simboli :   Temporali  Nebbia  Neve Forte  Precipitazioni Forti  Vento > 20 kt
SIGMETs :   Varie  Temporali  Ghiacco  Turbolenza  Onda orograficha  Ceneri Vulcaniche






- Altitudine del aeroporto : 659 ft
- Codice IATA : LYN


LFLY - Lyon Bron

ULTIMO METAR :
  • 192300Z AUTO 17003KT 3900 BR NSC 03/02 Q1027 TEMPO 0500 BCFG

METARs OBSOLETI :
  • 192230Z AUTO 00000KT 2100 BR NSC 03/03 Q1028 TEMPO 0500 BCFG
  • 192200Z AUTO VRB02KT 4400 BR NSC 04/04 Q1028 TEMPO 0500 BCFG
  • 192130Z AUTO 26002KT 3400 0700 R34/1300N BCFG NSC 04/03 Q1028 TEMPO 0500 BCFG
  • 192100Z AUTO 04001KT 5000 2200 BR FEW035 05/04 Q1028 NOSIG
  • 192030Z AUTO VRB02KT 9999 FEW037 05/04 Q1028 NOSIG
  • 192000Z AUTO 06003KT 9999 FEW039 06/04 Q1029 NOSIG

TAF AMD TAF LFLY
Valido dal 19 a 21 ore il 20 a 18 ore UTC


192106Z 1921/2018 VRB03KT 6000 FEW040
TEMPO 1921/2008 3000 BR
PROB30
TEMPO 1921/2008 0500 BCFG
BECMG 2008/2010 CAVOK
ATIS : +33 4 72 15 87 96



MetMap, La meteo Aeronautica in un colpo d'occhio ! - Copyright ORBIFLY Dicembre 2007 - Disclaimer

ORBIFLY MET'MAP TEAM :

Programmazione e sviluppo : Alexandra Zaïnal
Concezione : Baudouin d'Aumeries
Aiuto per la programmazione : Marc-Olivier Méhu
Supporto tecnico e logistico : Manuel Goepfert
Aiuto per la traduzione : Arnaldo La Scala

Contatto : metmap@orbifly.com




FONTI E CREDITI :

   NOAA